createdAt,value
2023-05-07T00:02:26.271Z,17.80
2023-05-07T00:04:53.140Z,18.00
2023-05-07T00:07:19.827Z,17.70
2023-05-07T00:09:46.403Z,17.80
2023-05-07T00:12:14.464Z,17.80
2023-05-07T00:14:42.305Z,17.20
2023-05-07T00:17:08.849Z,17.10
2023-05-07T00:19:35.931Z,17.40
2023-05-07T00:22:03.502Z,17.60
2023-05-07T00:24:30.103Z,17.40
2023-05-07T00:26:57.334Z,17.00
2023-05-07T00:29:24.276Z,16.80
2023-05-07T00:31:51.541Z,16.80
2023-05-07T00:34:18.147Z,16.90
2023-05-07T00:36:44.811Z,17.20
2023-05-07T00:39:11.752Z,17.30
2023-05-07T00:41:40.928Z,17.50
2023-05-07T00:44:09.651Z,17.20
2023-05-07T00:46:37.109Z,17.40
2023-05-07T00:49:03.817Z,17.20
2023-05-07T00:51:30.381Z,16.90
2023-05-07T00:53:57.023Z,17.10
2023-05-07T00:56:23.592Z,16.60
2023-05-07T00:58:50.254Z,16.30
2023-05-07T01:01:17.129Z,16.40
2023-05-07T01:03:45.071Z,16.30
2023-05-07T01:06:12.176Z,16.50
2023-05-07T01:08:39.141Z,16.40
2023-05-07T01:11:05.752Z,16.60
2023-05-07T01:13:32.817Z,16.80
2023-05-07T01:15:59.390Z,16.80
2023-05-07T01:18:25.989Z,16.80
2023-05-07T01:20:52.676Z,16.80
2023-05-07T01:23:19.287Z,16.90
2023-05-07T01:25:45.875Z,16.90
2023-05-07T01:28:12.525Z,16.80
2023-05-07T01:30:39.121Z,16.90
2023-05-07T01:33:05.740Z,17.10
2023-05-07T01:35:32.332Z,17.00
2023-05-07T01:37:58.928Z,16.80
2023-05-07T01:40:25.492Z,16.30
2023-05-07T01:42:52.141Z,16.50
2023-05-07T01:45:19.626Z,16.40
2023-05-07T01:47:47.580Z,16.40
2023-05-07T01:50:14.441Z,16.00
2023-05-07T01:52:41.320Z,15.80
2023-05-07T01:55:08.272Z,15.70
2023-05-07T01:57:34.854Z,15.70
2023-05-07T02:00:01.448Z,15.60
2023-05-07T02:02:28.958Z,15.60
2023-05-07T02:04:55.556Z,15.60
2023-05-07T02:07:22.154Z,15.60
2023-05-07T02:09:48.714Z,15.60
2023-05-07T02:12:15.320Z,15.70
2023-05-07T02:14:41.975Z,15.60
2023-05-07T02:17:08.603Z,15.50
2023-05-07T02:19:35.229Z,15.50
2023-05-07T02:22:01.824Z,15.70
2023-05-07T02:24:28.381Z,15.60
2023-05-07T02:26:54.937Z,15.70
2023-05-07T02:29:21.527Z,15.90
2023-05-07T02:31:48.252Z,16.10
2023-05-07T02:34:14.844Z,16.10
2023-05-07T02:36:41.422Z,16.00
2023-05-07T02:39:07.989Z,15.90
2023-05-07T02:41:34.568Z,15.70
2023-05-07T02:44:01.147Z,15.60
2023-05-07T02:46:28.124Z,15.60
2023-05-07T02:48:54.751Z,15.40
2023-05-07T02:51:22.798Z,15.70
2023-05-07T02:53:50.641Z,15.90
2023-05-07T02:56:17.203Z,15.90
2023-05-07T02:58:43.777Z,15.90
2023-05-07T03:01:10.435Z,15.90
2023-05-07T03:03:37.367Z,15.90
2023-05-07T03:06:03.965Z,15.80
2023-05-07T03:08:33.019Z,15.70
2023-05-07T03:11:03.053Z,15.70
2023-05-07T03:13:31.754Z,15.60
2023-05-07T03:15:59.159Z,15.70
2023-05-07T03:18:25.780Z,15.90
2023-05-07T03:20:52.468Z,15.90
2023-05-07T03:23:19.247Z,15.80
2023-05-07T03:25:45.836Z,15.80
2023-05-07T03:28:12.417Z,15.70
2023-05-07T03:30:38.998Z,15.70
2023-05-07T03:33:05.626Z,15.70
2023-05-07T03:35:32.329Z,15.70
2023-05-07T03:37:59.062Z,15.50
2023-05-07T03:40:26.754Z,15.60
2023-05-07T03:42:53.340Z,15.20
2023-05-07T03:45:19.985Z,14.80
2023-05-07T03:47:46.874Z,14.70
2023-05-07T03:50:13.632Z,14.60
2023-05-07T03:52:40.321Z,14.90
2023-05-07T03:55:06.885Z,15.10
2023-05-07T03:57:33.481Z,15.30
2023-05-07T04:00:00.040Z,15.40
2023-05-07T04:02:26.741Z,15.50
2023-05-07T04:04:53.432Z,15.50
2023-05-07T04:07:20.024Z,15.50
2023-05-07T04:09:47.001Z,15.50
2023-05-07T04:12:13.597Z,15.20
2023-05-07T04:14:40.201Z,15.30
2023-05-07T04:17:06.811Z,15.50
2023-05-07T04:19:33.367Z,15.50
2023-05-07T04:21:59.946Z,15.70
2023-05-07T04:24:26.530Z,15.70
2023-05-07T04:26:53.107Z,15.80
2023-05-07T04:29:19.662Z,15.80
2023-05-07T04:31:46.311Z,15.80
2023-05-07T04:34:12.904Z,15.70
2023-05-07T04:36:39.503Z,15.80
2023-05-07T04:39:06.103Z,15.80
2023-05-07T04:44:00.431Z,15.40
2023-05-07T04:46:27.119Z,15.60
2023-05-07T04:48:53.836Z,15.40
2023-05-07T04:51:20.468Z,15.40
2023-05-07T04:53:48.767Z,15.70
2023-05-07T04:56:17.618Z,15.90
2023-05-07T04:58:44.221Z,15.80
2023-05-07T05:01:10.862Z,15.90
2023-05-07T05:03:37.559Z,16.10
2023-05-07T05:06:04.228Z,16.40
2023-05-07T05:08:30.827Z,16.70
2023-05-07T05:10:57.394Z,16.40
2023-05-07T05:13:24.246Z,16.70
2023-05-07T05:15:51.047Z,16.70
2023-05-07T05:18:17.692Z,16.80
2023-05-07T05:20:44.501Z,17.00
2023-05-07T05:23:11.105Z,17.20
2023-05-07T05:25:37.657Z,17.30
2023-05-07T05:28:04.235Z,17.30
2023-05-07T05:30:30.843Z,17.10
2023-05-07T05:32:57.504Z,16.90
2023-05-07T05:35:24.174Z,17.10
2023-05-07T05:37:51.531Z,16.80
2023-05-07T05:40:18.119Z,17.00
2023-05-07T05:42:44.730Z,17.10
2023-05-07T05:45:11.321Z,17.30
2023-05-07T05:47:37.900Z,17.40
2023-05-07T05:50:04.517Z,17.30
2023-05-07T05:52:31.138Z,17.40
2023-05-07T05:54:57.709Z,17.40
2023-05-07T05:57:26.006Z,17.30
2023-05-07T05:59:53.221Z,16.90
2023-05-07T06:02:19.990Z,17.30
2023-05-07T06:04:46.715Z,17.60
2023-05-07T06:07:13.350Z,17.60
2023-05-07T06:09:39.957Z,17.80
2023-05-07T06:12:06.549Z,17.80
2023-05-07T06:14:33.147Z,17.60
2023-05-07T06:17:00.277Z,17.70
2023-05-07T06:19:29.828Z,18.00
2023-05-07T06:21:58.019Z,18.60
2023-05-07T06:24:24.621Z,18.10
2023-05-07T06:26:51.209Z,18.10
2023-05-07T06:29:17.761Z,18.60
2023-05-07T06:31:44.671Z,18.20
2023-05-07T06:34:11.298Z,18.20
2023-05-07T06:36:37.924Z,18.00
2023-05-07T06:39:04.591Z,18.00
2023-05-07T06:41:31.211Z,18.30
2023-05-07T06:43:58.720Z,18.30
2023-05-07T06:46:26.389Z,18.00
2023-05-07T06:48:53.058Z,18.30
2023-05-07T06:51:19.690Z,18.60
2023-05-07T06:53:51.817Z,18.70
2023-05-07T06:56:18.453Z,19.00
2023-05-07T06:58:45.045Z,18.90
2023-05-07T07:01:11.728Z,18.80
2023-05-07T07:03:38.340Z,19.10
2023-05-07T07:06:04.952Z,19.20
2023-05-07T07:08:31.531Z,18.60
2023-05-07T07:10:58.183Z,19.20
2023-05-07T07:13:24.904Z,19.90
2023-05-07T07:15:51.620Z,20.30
2023-05-07T07:18:18.200Z,19.90
2023-05-07T07:20:44.802Z,19.70
2023-05-07T07:23:11.531Z,20.30
2023-05-07T07:25:38.118Z,20.70
2023-05-07T07:28:04.688Z,20.80
2023-05-07T07:30:31.753Z,20.80
2023-05-07T07:32:58.385Z,20.60
2023-05-07T07:35:25.803Z,20.60
2023-05-07T07:37:52.445Z,20.50
2023-05-07T07:40:19.027Z,20.50
2023-05-07T07:42:45.624Z,20.80
2023-05-07T07:45:13.040Z,20.70
2023-05-07T07:47:40.164Z,20.10
2023-05-07T07:50:06.843Z,19.90
2023-05-07T07:52:33.422Z,19.70
2023-05-07T07:55:00.026Z,19.90
2023-05-07T07:57:26.717Z,20.20
2023-05-07T07:59:54.579Z,20.20
2023-05-07T08:02:21.204Z,20.50
2023-05-07T08:04:47.847Z,20.80
2023-05-07T08:07:14.423Z,20.50
2023-05-07T08:09:41.005Z,20.60
2023-05-07T08:12:07.809Z,20.90
2023-05-07T08:14:34.786Z,20.70
2023-05-07T08:17:01.469Z,20.90
2023-05-07T08:19:28.077Z,20.90
2023-05-07T08:21:56.066Z,20.40
2023-05-07T08:24:22.803Z,20.70
2023-05-07T08:26:49.402Z,20.80
2023-05-07T08:29:16.951Z,20.60
2023-05-07T08:31:43.558Z,21.10
2023-05-07T08:34:10.451Z,21.30
2023-05-07T08:36:37.180Z,21.10
2023-05-07T08:39:03.791Z,21.40
2023-05-07T08:41:30.365Z,21.60
2023-05-07T08:43:56.956Z,22.10
2023-05-07T08:46:23.704Z,21.90
2023-05-07T08:48:50.336Z,22.20
2023-05-07T08:51:17.219Z,22.00
2023-05-07T08:53:43.806Z,20.70
2023-05-07T08:56:10.912Z,20.60
2023-05-07T08:58:37.536Z,21.20
2023-05-07T09:01:04.136Z,21.40
2023-05-07T09:03:30.765Z,21.70
2023-05-07T09:05:57.355Z,21.60
2023-05-07T09:08:23.951Z,21.90
2023-05-07T09:10:50.508Z,21.80
2023-05-07T09:13:18.440Z,21.90
2023-05-07T09:15:45.105Z,22.10
2023-05-07T09:18:11.786Z,22.00
2023-05-07T09:20:38.745Z,22.10
2023-05-07T09:23:05.537Z,22.80
2023-05-07T09:25:33.367Z,23.20
2023-05-07T09:27:59.982Z,23.20
2023-05-07T09:30:26.574Z,23.10
2023-05-07T09:32:53.303Z,23.40
2023-05-07T09:35:20.734Z,23.50
2023-05-07T09:37:47.302Z,23.50
2023-05-07T09:40:13.911Z,23.00
2023-05-07T09:42:40.484Z,22.60
2023-05-07T09:45:07.072Z,22.60
2023-05-07T09:47:33.815Z,22.60
2023-05-07T09:50:00.462Z,22.70
2023-05-07T09:52:27.067Z,22.90
2023-05-07T09:54:53.624Z,23.20
2023-05-07T09:57:20.174Z,22.70
2023-05-07T09:59:46.869Z,22.30
2023-05-07T10:02:13.439Z,22.20
2023-05-07T10:04:40.069Z,22.10
2023-05-07T10:07:06.660Z,22.10
2023-05-07T10:09:33.243Z,22.00
2023-05-07T10:11:59.831Z,22.10
2023-05-07T10:14:26.415Z,21.70
2023-05-07T10:16:53.011Z,21.60
2023-05-07T10:19:21.059Z,21.90
2023-05-07T10:21:47.619Z,22.10
2023-05-07T10:24:14.204Z,22.70
2023-05-07T10:26:40.794Z,22.80
2023-05-07T10:29:07.386Z,23.20
2023-05-07T10:31:34.050Z,23.60
2023-05-07T10:34:00.753Z,23.40
2023-05-07T10:36:27.377Z,23.40
2023-05-07T10:38:53.940Z,23.30
2023-05-07T10:41:20.523Z,23.20
2023-05-07T10:43:47.087Z,23.70
2023-05-07T10:46:13.739Z,23.90
2023-05-07T10:48:40.331Z,23.80
2023-05-07T10:51:08.052Z,23.90
2023-05-07T10:53:35.023Z,24.80
2023-05-07T10:56:01.583Z,24.20
2023-05-07T10:58:32.848Z,24.70
2023-05-07T11:00:59.762Z,24.30
2023-05-07T11:03:26.420Z,24.20
2023-05-07T11:05:52.992Z,24.20
2023-05-07T11:08:19.625Z,24.40
2023-05-07T11:10:46.233Z,24.80
2023-05-07T11:13:12.907Z,24.60
2023-05-07T11:15:39.577Z,24.70
2023-05-07T11:18:06.217Z,24.00
2023-05-07T11:20:32.858Z,23.70
2023-05-07T11:22:59.456Z,23.50
2023-05-07T11:25:26.016Z,23.30
2023-05-07T11:27:52.638Z,23.40
2023-05-07T11:30:20.222Z,24.00
2023-05-07T11:32:46.860Z,23.90
2023-05-07T11:35:14.245Z,23.80
2023-05-07T11:37:41.005Z,23.70
2023-05-07T11:40:07.705Z,23.70
2023-05-07T11:42:35.116Z,23.40
2023-05-07T11:45:01.700Z,23.80
2023-05-07T11:47:28.303Z,24.10
2023-05-07T11:49:54.918Z,24.80
2023-05-07T11:52:21.473Z,24.90
2023-05-07T11:54:48.071Z,24.90
2023-05-07T11:57:14.642Z,24.80
2023-05-07T11:59:41.241Z,24.60
2023-05-07T12:02:08.447Z,24.50
2023-05-07T12:04:35.068Z,24.70
2023-05-07T12:07:03.027Z,24.70
2023-05-07T12:09:29.612Z,24.80
2023-05-07T12:11:56.204Z,24.60
2023-05-07T12:14:23.105Z,23.80
2023-05-07T12:16:49.673Z,23.80
2023-05-07T12:19:16.298Z,23.80
2023-05-07T12:21:42.888Z,24.00
2023-05-07T12:24:09.472Z,24.30
2023-05-07T12:26:36.068Z,24.00
2023-05-07T12:29:02.669Z,23.60
2023-05-07T12:31:29.304Z,23.50
2023-05-07T12:33:55.942Z,23.60
2023-05-07T12:36:22.498Z,23.70
2023-05-07T12:38:49.101Z,23.40
2023-05-07T12:41:15.772Z,23.30
2023-05-07T12:43:42.593Z,23.40
2023-05-07T12:46:09.649Z,23.50
2023-05-07T12:48:36.413Z,23.50
2023-05-07T12:51:03.045Z,23.50
2023-05-07T12:53:29.636Z,23.70
2023-05-07T12:55:56.444Z,23.90
2023-05-07T12:58:23.015Z,23.00
2023-05-07T13:00:49.594Z,22.60
2023-05-07T13:03:16.341Z,21.40
2023-05-07T13:05:42.941Z,21.70
2023-05-07T13:08:09.508Z,22.10
2023-05-07T13:10:36.388Z,22.00
2023-05-07T13:13:03.268Z,22.10
2023-05-07T13:15:29.883Z,21.80
2023-05-07T13:17:56.625Z,22.00
2023-05-07T13:20:23.887Z,22.00
2023-05-07T13:22:50.672Z,22.10
2023-05-07T13:25:17.265Z,22.00
2023-05-07T13:27:43.869Z,21.50
2023-05-07T13:30:10.485Z,20.80
2023-05-07T13:32:37.130Z,20.20
2023-05-07T13:35:03.756Z,20.10
2023-05-07T13:37:30.664Z,19.60
2023-05-07T13:39:57.230Z,19.20
2023-05-07T13:42:24.133Z,19.20
2023-05-07T13:44:50.747Z,19.70
2023-05-07T13:47:17.367Z,19.60
2023-05-07T13:49:44.010Z,19.60
2023-05-07T13:52:10.713Z,19.50
2023-05-07T13:54:37.267Z,19.50
2023-05-07T13:57:03.836Z,20.00
2023-05-07T13:59:30.478Z,20.10
2023-05-07T14:01:57.049Z,19.90
2023-05-07T14:04:23.812Z,20.10
2023-05-07T14:06:50.402Z,19.70
2023-05-07T14:09:17.176Z,19.70
2023-05-07T14:11:44.589Z,20.00
2023-05-07T14:14:12.402Z,20.40
2023-05-07T14:16:38.995Z,20.40
2023-05-07T14:19:05.607Z,20.20
2023-05-07T14:21:32.254Z,20.10
2023-05-07T14:23:58.848Z,20.10
2023-05-07T14:26:25.414Z,20.10
2023-05-07T14:28:52.011Z,20.30
2023-05-07T14:31:18.633Z,20.30
2023-05-07T14:33:45.267Z,20.30
2023-05-07T14:36:11.859Z,20.40
2023-05-07T14:38:38.446Z,20.40
2023-05-07T14:41:04.994Z,20.60
2023-05-07T14:43:32.534Z,20.40
2023-05-07T14:45:59.115Z,20.30
2023-05-07T14:48:25.732Z,20.10
2023-05-07T14:50:52.300Z,20.20
2023-05-07T14:53:18.893Z,20.20
2023-05-07T14:55:45.480Z,19.60
2023-05-07T14:58:12.055Z,19.10
2023-05-07T15:00:38.668Z,19.30
2023-05-07T15:03:05.367Z,19.60
2023-05-07T15:05:31.979Z,19.80
2023-05-07T15:07:58.626Z,20.10
2023-05-07T15:10:25.263Z,20.20
2023-05-07T15:12:51.915Z,19.80
2023-05-07T15:15:18.527Z,19.80
2023-05-07T15:17:46.732Z,19.90
2023-05-07T15:20:13.320Z,20.00
2023-05-07T15:22:39.909Z,20.10
2023-05-07T15:25:06.488Z,19.80
2023-05-07T15:27:33.077Z,20.00
2023-05-07T15:29:59.717Z,20.00
2023-05-07T15:32:26.363Z,20.20
2023-05-07T15:34:52.966Z,20.20
2023-05-07T15:37:19.542Z,20.30
2023-05-07T15:39:46.136Z,20.30
2023-05-07T15:42:12.709Z,20.60
2023-05-07T15:44:39.286Z,20.80
2023-05-07T15:47:05.880Z,21.00
2023-05-07T15:49:32.495Z,20.80
2023-05-07T15:51:59.054Z,20.90
2023-05-07T15:54:25.661Z,21.10
2023-05-07T15:56:52.315Z,21.30
2023-05-07T15:59:18.978Z,20.70
2023-05-07T16:01:45.743Z,20.70
2023-05-07T16:04:14.798Z,20.50
2023-05-07T16:06:41.381Z,20.50
2023-05-07T16:09:07.965Z,20.50
2023-05-07T16:11:34.624Z,19.80
2023-05-07T16:14:01.557Z,20.00
2023-05-07T16:16:28.206Z,20.10
2023-05-07T16:18:55.423Z,19.90
2023-05-07T16:21:22.089Z,19.90
2023-05-07T16:23:48.655Z,20.20
2023-05-07T16:26:15.246Z,20.00
2023-05-07T16:28:41.874Z,19.70
2023-05-07T16:31:08.550Z,20.00
2023-05-07T16:33:35.225Z,20.20
2023-05-07T16:36:01.826Z,20.20
2023-05-07T16:38:28.379Z,20.20
2023-05-07T16:40:55.066Z,19.90
2023-05-07T16:43:22.048Z,20.10
2023-05-07T16:45:48.677Z,20.10
2023-05-07T16:48:15.289Z,20.30
2023-05-07T16:50:41.877Z,19.90
2023-05-07T16:53:08.436Z,19.90
2023-05-07T16:55:37.995Z,19.50
2023-05-07T16:58:05.017Z,19.80
2023-05-07T17:00:46.304Z,19.60
2023-05-07T17:03:16.783Z,19.50
2023-05-07T17:05:43.427Z,19.70
2023-05-07T17:08:10.058Z,19.90
2023-05-07T17:10:36.637Z,19.80
2023-05-07T17:13:03.274Z,19.30
2023-05-07T17:15:29.866Z,19.40
2023-05-07T17:17:56.615Z,19.50
2023-05-07T17:20:23.256Z,19.60
2023-05-07T17:22:49.856Z,19.70
2023-05-07T17:25:16.467Z,19.80
2023-05-07T17:27:43.211Z,19.80
2023-05-07T17:30:10.045Z,19.60
2023-05-07T17:32:36.790Z,19.30
2023-05-07T17:35:04.076Z,18.50
2023-05-07T17:37:31.972Z,18.60
2023-05-07T17:39:58.543Z,18.70
2023-05-07T17:42:25.242Z,18.90
2023-05-07T17:44:51.849Z,18.90
2023-05-07T17:47:18.510Z,18.60
2023-05-07T17:49:45.092Z,19.00
2023-05-07T17:52:11.648Z,18.70
2023-05-07T17:54:38.272Z,18.80
2023-05-07T17:57:04.873Z,18.50
2023-05-07T17:59:31.460Z,18.40
2023-05-07T18:01:59.512Z,18.40
2023-05-07T18:04:26.086Z,18.30
2023-05-07T18:06:52.685Z,18.30
2023-05-07T18:09:19.352Z,18.50
2023-05-07T18:11:45.935Z,18.90
2023-05-07T18:14:12.528Z,18.90
2023-05-07T18:16:39.238Z,18.80
2023-05-07T18:19:05.855Z,18.80
2023-05-07T18:21:32.426Z,18.30
2023-05-07T18:23:59.113Z,18.30
2023-05-07T18:26:25.787Z,18.20
2023-05-07T18:28:52.377Z,18.10
2023-05-07T18:31:19.053Z,18.30
2023-05-07T18:33:45.669Z,18.60
2023-05-07T18:36:12.227Z,18.50
2023-05-07T18:38:38.910Z,18.50
2023-05-07T18:41:05.583Z,18.50
2023-05-07T18:43:32.136Z,18.50
2023-05-07T18:45:58.866Z,18.10
2023-05-07T18:48:25.533Z,18.10
2023-05-07T18:50:58.277Z,18.10
2023-05-07T18:53:24.980Z,18.10
2023-05-07T18:55:51.552Z,18.50
2023-05-07T18:58:19.067Z,18.80
2023-05-07T19:00:45.695Z,19.10
2023-05-07T19:03:12.450Z,19.30
2023-05-07T19:05:39.217Z,19.30
2023-05-07T19:08:05.984Z,19.20
2023-05-07T19:10:34.301Z,19.00
2023-05-07T19:13:00.926Z,18.20
2023-05-07T19:15:27.602Z,18.10
2023-05-07T19:17:54.418Z,18.00
2023-05-07T19:20:21.008Z,18.40
2023-05-07T19:22:47.598Z,18.40
2023-05-07T19:25:14.320Z,18.20
2023-05-07T19:27:41.123Z,18.10
2023-05-07T19:30:07.809Z,18.10
2023-05-07T19:32:34.455Z,18.40
2023-05-07T19:35:01.071Z,18.60
2023-05-07T19:37:27.644Z,18.80
2023-05-07T19:39:56.429Z,19.00
2023-05-07T19:42:23.118Z,19.00
2023-05-07T19:44:49.714Z,19.10
2023-05-07T19:47:16.291Z,19.10
2023-05-07T19:49:42.883Z,19.00
2023-05-07T19:52:09.459Z,19.00
2023-05-07T19:54:36.082Z,19.00
2023-05-07T19:57:02.818Z,18.80
2023-05-07T19:59:29.404Z,18.80
2023-05-07T20:01:56.114Z,18.80
2023-05-07T20:04:22.783Z,18.60
2023-05-07T20:06:49.462Z,18.50
2023-05-07T20:09:19.113Z,18.60
2023-05-07T20:11:46.160Z,18.50
2023-05-07T20:14:13.478Z,18.40
2023-05-07T20:16:40.141Z,18.40
2023-05-07T20:19:06.750Z,18.70
2023-05-07T20:21:33.384Z,18.70
2023-05-07T20:24:00.044Z,18.90
2023-05-07T20:26:26.650Z,18.80
2023-05-07T20:28:53.243Z,18.60
2023-05-07T20:31:19.860Z,18.70
2023-05-07T20:33:46.426Z,18.80
2023-05-07T20:36:13.023Z,18.60
2023-05-07T20:38:39.653Z,18.70
2023-05-07T20:41:06.237Z,18.80
2023-05-07T20:43:32.786Z,18.50
2023-05-07T20:45:59.446Z,18.70
2023-05-07T20:48:26.057Z,18.40
2023-05-07T20:50:52.623Z,17.90
2023-05-07T20:53:19.249Z,18.10
2023-05-07T20:55:46.124Z,18.30
2023-05-07T20:58:19.810Z,18.40
2023-05-07T21:00:46.391Z,18.60
2023-05-07T21:03:12.990Z,18.60
2023-05-07T21:05:39.601Z,18.60
2023-05-07T21:08:06.169Z,18.60
2023-05-07T21:10:32.765Z,18.70
2023-05-07T21:12:59.385Z,18.80
2023-05-07T21:15:26.033Z,18.80
2023-05-07T21:20:37.138Z,18.80
2023-05-07T21:23:03.796Z,18.60
2023-05-07T21:25:30.385Z,18.00
2023-05-07T21:27:56.987Z,18.20
2023-05-07T21:30:23.936Z,18.40
2023-05-07T21:32:50.625Z,18.50
2023-05-07T21:35:17.263Z,18.50
2023-05-07T21:37:43.862Z,18.60
2023-05-07T21:40:10.603Z,18.70
2023-05-07T21:42:39.083Z,18.40
2023-05-07T21:45:05.690Z,17.90
2023-05-07T21:47:32.350Z,17.90
2023-05-07T21:49:58.950Z,18.00
2023-05-07T21:52:25.842Z,17.90
2023-05-07T21:54:52.740Z,18.10
2023-05-07T21:57:19.362Z,18.10
2023-05-07T21:59:45.949Z,18.00
2023-05-07T22:02:12.546Z,17.90
2023-05-07T22:04:39.093Z,17.70
2023-05-07T22:07:05.686Z,17.70
2023-05-07T22:09:32.306Z,18.00
2023-05-07T22:11:59.225Z,17.90
2023-05-07T22:14:27.728Z,18.10
2023-05-07T22:16:54.348Z,18.20
2023-05-07T22:19:21.097Z,18.30
2023-05-07T22:21:47.675Z,18.20
2023-05-07T22:24:14.320Z,18.00
2023-05-07T22:26:40.905Z,18.30
2023-05-07T22:29:11.124Z,18.40
2023-05-07T22:31:37.793Z,18.60
2023-05-07T22:34:04.423Z,18.50
2023-05-07T22:36:30.992Z,18.50
2023-05-07T22:38:57.688Z,18.40
2023-05-07T22:41:24.277Z,18.30
2023-05-07T22:43:50.839Z,17.90
2023-05-07T22:46:17.450Z,17.60
2023-05-07T22:48:46.304Z,17.60
2023-05-07T22:51:12.917Z,17.80
2023-05-07T22:53:39.497Z,18.10
2023-05-07T22:56:06.130Z,18.20
2023-05-07T22:58:32.692Z,18.30
2023-05-07T23:00:59.332Z,18.40
2023-05-07T23:03:26.125Z,18.40
2023-05-07T23:05:52.795Z,18.30
2023-05-07T23:08:19.372Z,18.20
2023-05-07T23:10:46.089Z,18.20
2023-05-07T23:13:13.043Z,18.20
2023-05-07T23:15:39.690Z,18.30
2023-05-07T23:18:06.319Z,18.30
2023-05-07T23:20:32.932Z,18.20
2023-05-07T23:22:59.636Z,18.00
2023-05-07T23:25:26.275Z,18.20
2023-05-07T23:27:53.470Z,18.30
2023-05-07T23:30:20.077Z,18.40
2023-05-07T23:32:47.146Z,18.30
2023-05-07T23:35:13.897Z,17.90
2023-05-07T23:37:40.690Z,17.60
2023-05-07T23:40:09.969Z,17.40
2023-05-07T23:42:36.803Z,17.30
2023-05-07T23:45:03.372Z,16.50
2023-05-07T23:47:29.990Z,16.40
2023-05-07T23:49:58.599Z,15.90
2023-05-07T23:52:26.931Z,15.40
2023-05-07T23:54:53.976Z,15.70
2023-05-07T23:57:20.538Z,15.80
2023-05-07T23:59:48.140Z,15.80
